Terminal Aerodrome Forecast
Issued by NWS

Home | Current Version | Previous Version | Text Only | Print | Product List | Glossary On
Versions: 1 2 3 4 5 6 7 8 9 10 11 12 13 14 15 16 17 18 19 20 21 22 23 24 25 26 27 28 29 30 31 32 33 34
000
FTUS44 KOUN 040319 AAA
TAFPNC
TAF AMD
KPNC 040319Z 0403/0424 02010G19KT 5SM BR SCT020 OVC060
     FM040600 03015G27KT 5SM BR OVC020
      TEMPO 0409/0412 3SM -PL BR OVC007
     FM041200 01020G26KT 2SM -SNPL BR OVC006
     FM041600 02015KT 1SM -SN OVC004=

USA.gov is the U.S. government's official web portal to all federal, state and local government web resources and services.